sensor_id;sensor_type;location;lat;lon;timestamp;pressure;altitude;pressure_sealevel;temperature;humidity
28448;BME280;15675;52.870;-1.416;2023-03-25T00:01:41;98816.22;;;9.92;97.82
28448;BME280;15675;52.870;-1.416;2023-03-25T00:04:06;98806.34;;;9.71;98.18
28448;BME280;15675;52.870;-1.416;2023-03-25T00:06:32;98793.66;;;9.58;98.41
28448;BME280;15675;52.870;-1.416;2023-03-25T00:08:59;98803.06;;;9.62;98.18
28448;BME280;15675;52.870;-1.416;2023-03-25T00:11:25;98798.94;;;9.55;98.37
28448;BME280;15675;52.870;-1.416;2023-03-25T00:13:50;98801.94;;;9.74;97.89
28448;BME280;15675;52.870;-1.416;2023-03-25T00:16:16;98792.31;;;9.40;98.38
28448;BME280;15675;52.870;-1.416;2023-03-25T00:18:43;98803.19;;;9.56;98.03
28448;BME280;15675;52.870;-1.416;2023-03-25T00:21:09;98787.34;;;9.32;97.26
28448;BME280;15675;52.870;-1.416;2023-03-25T00:23:37;98799.97;;;9.84;96.46
28448;BME280;15675;52.870;-1.416;2023-03-25T00:26:03;98811.75;;;9.60;96.26
28448;BME280;15675;52.870;-1.416;2023-03-25T00:28:31;98818.00;;;9.89;94.75
28448;BME280;15675;52.870;-1.416;2023-03-25T00:30:58;98834.06;;;10.03;94.24
28448;BME280;15675;52.870;-1.416;2023-03-25T00:33:24;98821.84;;;9.33;97.21
28448;BME280;15675;52.870;-1.416;2023-03-25T00:35:51;98820.13;;;9.33;98.91
28448;BME280;15675;52.870;-1.416;2023-03-25T00:38:19;98813.88;;;9.42;100.00
28448;BME280;15675;52.870;-1.416;2023-03-25T00:40:45;98824.63;;;9.24;100.00
28448;BME280;15675;52.870;-1.416;2023-03-25T00:43:13;98828.75;;;9.32;100.00
28448;BME280;15675;52.870;-1.416;2023-03-25T00:45:39;98831.91;;;9.47;100.00
28448;BME280;15675;52.870;-1.416;2023-03-25T00:48:05;98817.56;;;9.30;100.00
28448;BME280;15675;52.870;-1.416;2023-03-25T00:50:30;98821.47;;;9.50;100.00
28448;BME280;15675;52.870;-1.416;2023-03-25T00:52:56;98838.78;;;9.48;100.00
28448;BME280;15675;52.870;-1.416;2023-03-25T00:55:21;98830.06;;;9.52;100.00
28448;BME280;15675;52.870;-1.416;2023-03-25T00:57:47;98813.09;;;9.39;100.00
28448;BME280;15675;52.870;-1.416;2023-03-25T01:00:15;98814.16;;;9.28;100.00
28448;BME280;15675;52.870;-1.416;2023-03-25T01:02:41;98825.84;;;9.48;100.00
28448;BME280;15675;52.870;-1.416;2023-03-25T01:05:08;98823.59;;;9.32;100.00
28448;BME280;15675;52.870;-1.416;2023-03-25T01:07:35;98830.97;;;9.51;100.00
28448;BME280;15675;52.870;-1.416;2023-03-25T01:10:02;98836.78;;;9.20;100.00
28448;BME280;15675;52.870;-1.416;2023-03-25T01:12:28;98827.47;;;9.11;100.00
28448;BME280;15675;52.870;-1.416;2023-03-25T01:14:53;98825.72;;;9.12;100.00
28448;BME280;15675;52.870;-1.416;2023-03-25T01:17:19;98824.84;;;9.13;100.00
28448;BME280;15675;52.870;-1.416;2023-03-25T01:19:45;98823.31;;;9.45;100.00
28448;BME280;15675;52.870;-1.416;2023-03-25T01:22:11;98830.84;;;9.13;100.00
28448;BME280;15675;52.870;-1.416;2023-03-25T01:24:36;98818.13;;;9.04;100.00
28448;BME280;15675;52.870;-1.416;2023-03-25T01:27:03;98832.63;;;9.11;100.00
28448;BME280;15675;52.870;-1.416;2023-03-25T01:29:29;98846.69;;;9.00;100.00
28448;BME280;15675;52.870;-1.416;2023-03-25T01:31:55;98836.28;;;9.03;100.00
28448;BME280;15675;52.870;-1.416;2023-03-25T01:34:20;98831.13;;;9.01;100.00
28448;BME280;15675;52.870;-1.416;2023-03-25T01:36:46;98832.88;;;8.99;100.00
28448;BME280;15675;52.870;-1.416;2023-03-25T01:39:14;98846.53;;;9.07;100.00
28448;BME280;15675;52.870;-1.416;2023-03-25T01:41:45;98832.91;;;8.97;100.00
28448;BME280;15675;52.870;-1.416;2023-03-25T01:46:51;98856.19;;;8.97;100.00
28448;BME280;15675;52.870;-1.416;2023-03-25T01:49:22;98849.31;;;8.98;100.00
28448;BME280;15675;52.870;-1.416;2023-03-25T01:51:54;98848.41;;;8.99;100.00
28448;BME280;15675;52.870;-1.416;2023-03-25T01:54:21;98858.81;;;8.96;100.00
28448;BME280;15675;52.870;-1.416;2023-03-25T01:56:48;98869.69;;;9.15;100.00
28448;BME280;15675;52.870;-1.416;2023-03-25T01:59:16;98866.94;;;9.23;100.00
28448;BME280;15675;52.870;-1.416;2023-03-25T02:01:47;98877.59;;;9.06;100.00
28448;BME280;15675;52.870;-1.416;2023-03-25T02:04:14;98868.13;;;9.05;100.00
28448;BME280;15675;52.870;-1.416;2023-03-25T02:06:46;98872.19;;;8.73;100.00
28448;BME280;15675;52.870;-1.416;2023-03-25T02:09:17;98878.81;;;8.89;100.00
28448;BME280;15675;52.870;-1.416;2023-03-25T02:11:44;98883.41;;;8.72;100.00
28448;BME280;15675;52.870;-1.416;2023-03-25T02:14:13;98878.28;;;8.69;100.00
28448;BME280;15675;52.870;-1.416;2023-03-25T02:17:04;98881.81;;;8.64;100.00
28448;BME280;15675;52.870;-1.416;2023-03-25T02:30:40;98873.03;;;8.73;100.00
28448;BME280;15675;52.870;-1.416;2023-03-25T02:41:28;98884.78;;;8.91;100.00
28448;BME280;15675;52.870;-1.416;2023-03-25T02:46:28;98882.47;;;8.76;100.00
28448;BME280;15675;52.870;-1.416;2023-03-25T02:48:59;98878.13;;;8.79;100.00
28448;BME280;15675;52.870;-1.416;2023-03-25T02:51:48;98887.75;;;8.71;100.00
28448;BME280;15675;52.870;-1.416;2023-03-25T02:54:18;98881.81;;;8.64;100.00
28448;BME280;15675;52.870;-1.416;2023-03-25T02:56:47;98904.06;;;8.73;100.00
28448;BME280;15675;52.870;-1.416;2023-03-25T02:59:14;98904.38;;;8.55;100.00
28448;BME280;15675;52.870;-1.416;2023-03-25T03:01:41;98898.16;;;8.68;100.00
28448;BME280;15675;52.870;-1.416;2023-03-25T03:04:07;98909.38;;;8.67;100.00
28448;BME280;15675;52.870;-1.416;2023-03-25T03:06:39;98902.41;;;8.71;100.00
28448;BME280;15675;52.870;-1.416;2023-03-25T03:09:18;98903.28;;;8.70;100.00
28448;BME280;15675;52.870;-1.416;2023-03-25T03:20:07;98914.06;;;8.93;100.00
28448;BME280;15675;52.870;-1.416;2023-03-25T03:25:18;98905.31;;;9.01;100.00
28448;BME280;15675;52.870;-1.416;2023-03-25T03:30:43;98910.06;;;8.77;100.00
28448;BME280;15675;52.870;-1.416;2023-03-25T03:35:47;98924.28;;;9.01;100.00
28448;BME280;15675;52.870;-1.416;2023-03-25T03:38:18;98930.16;;;9.11;100.00
28448;BME280;15675;52.870;-1.416;2023-03-25T03:40:50;98933.69;;;9.07;100.00
28448;BME280;15675;52.870;-1.416;2023-03-25T03:43:25;98924.53;;;9.34;100.00
28448;BME280;15675;52.870;-1.416;2023-03-25T03:46:01;98929.59;;;9.39;100.00
28448;BME280;15675;52.870;-1.416;2023-03-25T03:48:34;98921.38;;;9.18;100.00
28448;BME280;15675;52.870;-1.416;2023-03-25T03:51:19;98924.25;;;9.03;100.00
28448;BME280;15675;52.870;-1.416;2023-03-25T03:56:30;98930.16;;;9.11;100.00
28448;BME280;15675;52.870;-1.416;2023-03-25T03:59:05;98936.25;;;9.07;100.00
28448;BME280;15675;52.870;-1.416;2023-03-25T04:01:45;98947.38;;;9.12;100.00
28448;BME280;15675;52.870;-1.416;2023-03-25T04:04:19;98965.09;;;9.35;100.00
28448;BME280;15675;52.870;-1.416;2023-03-25T04:07:12;98956.13;;;9.05;100.00
28448;BME280;15675;52.870;-1.416;2023-03-25T04:12:27;98955.94;;;9.15;100.00
28448;BME280;15675;52.870;-1.416;2023-03-25T04:14:59;98965.50;;;9.12;100.00
28448;BME280;15675;52.870;-1.416;2023-03-25T04:17:25;98964.78;;;9.04;100.00
28448;BME280;15675;52.870;-1.416;2023-03-25T04:19:55;98969.84;;;9.10;100.00
28448;BME280;15675;52.870;-1.416;2023-03-25T04:22:21;98969.25;;;8.95;100.00
28448;BME280;15675;52.870;-1.416;2023-03-25T04:24:47;98977.56;;;9.13;100.00
28448;BME280;15675;52.870;-1.416;2023-03-25T04:27:19;98991.19;;;8.73;100.00
28448;BME280;15675;52.870;-1.416;2023-03-25T04:29:48;98974.31;;;9.02;100.00
28448;BME280;15675;52.870;-1.416;2023-03-25T04:32:13;98979.22;;;9.17;100.00
28448;BME280;15675;52.870;-1.416;2023-03-25T04:34:39;98995.78;;;9.07;100.00
28448;BME280;15675;52.870;-1.416;2023-03-25T04:37:05;98983.72;;;9.06;100.00
28448;BME280;15675;52.870;-1.416;2023-03-25T04:39:30;98969.47;;;8.81;100.00
28448;BME280;15675;52.870;-1.416;2023-03-25T04:41:57;98983.47;;;8.70;100.00
28448;BME280;15675;52.870;-1.416;2023-03-25T04:44:31;98997.75;;;8.94;100.00
28448;BME280;15675;52.870;-1.416;2023-03-25T04:47:04;98966.25;;;8.69;100.00
28448;BME280;15675;52.870;-1.416;2023-03-25T04:49:31;98984.56;;;8.55;100.00
28448;BME280;15675;52.870;-1.416;2023-03-25T04:51:56;99006.59;;;8.79;100.00
28448;BME280;15675;52.870;-1.416;2023-03-25T04:54:23;98979.38;;;8.55;100.00
28448;BME280;15675;52.870;-1.416;2023-03-25T04:56:50;98996.47;;;8.67;100.00
28448;BME280;15675;52.870;-1.416;2023-03-25T04:59:17;98998.19;;;8.66;100.00
28448;BME280;15675;52.870;-1.416;2023-03-25T05:01:43;98975.22;;;8.46;100.00
28448;BME280;15675;52.870;-1.416;2023-03-25T05:04:11;99001.63;;;8.67;100.00
28448;BME280;15675;52.870;-1.416;2023-03-25T05:06:43;98997.47;;;8.55;100.00
28448;BME280;15675;52.870;-1.416;2023-03-25T05:09:12;98998.31;;;8.58;100.00
28448;BME280;15675;52.870;-1.416;2023-03-25T05:11:38;99001.94;;;8.43;100.00
28448;BME280;15675;52.870;-1.416;2023-03-25T05:14:07;99021.03;;;8.35;100.00
28448;BME280;15675;52.870;-1.416;2023-03-25T05:16:32;99016.03;;;8.22;100.00
28448;BME280;15675;52.870;-1.416;2023-03-25T05:18:58;99018.34;;;8.39;100.00
28448;BME280;15675;52.870;-1.416;2023-03-25T05:21:24;99029.97;;;8.74;100.00
28448;BME280;15675;52.870;-1.416;2023-03-25T05:23:50;99037.31;;;8.41;100.00
28448;BME280;15675;52.870;-1.416;2023-03-25T05:26:17;99049.16;;;8.58;100.00
28448;BME280;15675;52.870;-1.416;2023-03-25T05:28:43;99039.53;;;8.68;100.00
28448;BME280;15675;52.870;-1.416;2023-03-25T05:31:09;99045.91;;;8.46;100.00
28448;BME280;15675;52.870;-1.416;2023-03-25T05:33:36;99045.13;;;8.37;100.00
28448;BME280;15675;52.870;-1.416;2023-03-25T05:36:14;99047.56;;;8.49;100.00
28448;BME280;15675;52.870;-1.416;2023-03-25T05:38:41;99044.19;;;8.42;100.00
28448;BME280;15675;52.870;-1.416;2023-03-25T05:41:09;99063.16;;;8.44;100.00
28448;BME280;15675;52.870;-1.416;2023-03-25T05:43:36;99073.59;;;8.35;100.00
28448;BME280;15675;52.870;-1.416;2023-03-25T05:46:03;99090.53;;;8.61;100.00
28448;BME280;15675;52.870;-1.416;2023-03-25T05:48:30;99078.06;;;8.24;100.00
28448;BME280;15675;52.870;-1.416;2023-03-25T05:50:59;99089.84;;;8.45;100.00
28448;BME280;15675;52.870;-1.416;2023-03-25T05:53:27;99102.78;;;8.45;100.00
28448;BME280;15675;52.870;-1.416;2023-03-25T05:55:55;99089.94;;;8.37;100.00
28448;BME280;15675;52.870;-1.416;2023-03-25T05:58:21;99092.22;;;8.60;100.00
28448;BME280;15675;52.870;-1.416;2023-03-25T06:00:46;99085.47;;;8.52;100.00
28448;BME280;15675;52.870;-1.416;2023-03-25T06:03:12;99100.19;;;8.48;100.00
28448;BME280;15675;52.870;-1.416;2023-03-25T06:05:38;99096.75;;;8.43;100.00
28448;BME280;15675;52.870;-1.416;2023-03-25T06:08:04;99097.56;;;8.50;100.00
28448;BME280;15675;52.870;-1.416;2023-03-25T06:10:29;99100.38;;;8.31;100.00
28448;BME280;15675;52.870;-1.416;2023-03-25T06:12:56;99103.69;;;8.41;100.00
28448;BME280;15675;52.870;-1.416;2023-03-25T06:15:21;99114.00;;;8.44;100.00
28448;BME280;15675;52.870;-1.416;2023-03-25T06:17:56;99109.00;;;8.30;100.00
28448;BME280;15675;52.870;-1.416;2023-03-25T06:20:22;99123.47;;;8.46;100.00
28448;BME280;15675;52.870;-1.416;2023-03-25T06:22:48;99128.50;;;8.57;100.00
28448;BME280;15675;52.870;-1.416;2023-03-25T06:25:16;99132.72;;;8.63;100.00
28448;BME280;15675;52.870;-1.416;2023-03-25T06:27:43;99128.59;;;8.51;100.00
28448;BME280;15675;52.870;-1.416;2023-03-25T06:30:11;99129.34;;;8.56;100.00
28448;BME280;15675;52.870;-1.416;2023-03-25T06:32:37;99128.66;;;8.42;100.00
28448;BME280;15675;52.870;-1.416;2023-03-25T06:35:05;99143.91;;;8.63;100.00
28448;BME280;15675;52.870;-1.416;2023-03-25T06:37:32;99145.34;;;8.86;100.00
28448;BME280;15675;52.870;-1.416;2023-03-25T06:39:58;99149.22;;;8.56;100.00
28448;BME280;15675;52.870;-1.416;2023-03-25T06:42:27;99150.56;;;8.83;100.00
28448;BME280;15675;52.870;-1.416;2023-03-25T06:44:53;99159.81;;;9.00;100.00
28448;BME280;15675;52.870;-1.416;2023-03-25T06:47:19;99159.69;;;9.07;100.00
28448;BME280;15675;52.870;-1.416;2023-03-25T06:49:45;99156.59;;;8.85;100.00
28448;BME280;15675;52.870;-1.416;2023-03-25T06:52:11;99173.78;;;8.86;100.00
28448;BME280;15675;52.870;-1.416;2023-03-25T06:54:37;99171.16;;;8.92;100.00
28448;BME280;15675;52.870;-1.416;2023-03-25T06:57:03;99184.25;;;8.80;100.00
28448;BME280;15675;52.870;-1.416;2023-03-25T06:59:29;99179.91;;;8.80;100.00
28448;BME280;15675;52.870;-1.416;2023-03-25T07:01:54;99183.16;;;8.96;100.00
28448;BME280;15675;52.870;-1.416;2023-03-25T07:04:20;99170.47;;;8.76;100.00
28448;BME280;15675;52.870;-1.416;2023-03-25T07:06:45;99189.41;;;8.81;100.00
28448;BME280;15675;52.870;-1.416;2023-03-25T07:09:11;99191.00;;;8.90;100.00
28448;BME280;15675;52.870;-1.416;2023-03-25T07:11:36;99179.78;;;8.91;100.00
28448;BME280;15675;52.870;-1.416;2023-03-25T07:14:02;99182.09;;;9.10;100.00
28448;BME280;15675;52.870;-1.416;2023-03-25T07:16:27;99188.28;;;9.01;100.00
28448;BME280;15675;52.870;-1.416;2023-03-25T07:18:53;99196.84;;;9.05;100.00
28448;BME280;15675;52.870;-1.416;2023-03-25T07:21:23;99192.53;;;9.05;100.00
28448;BME280;15675;52.870;-1.416;2023-03-25T07:23:49;99208.78;;;9.15;100.00
28448;BME280;15675;52.870;-1.416;2023-03-25T07:26:14;99197.59;;;9.11;100.00
28448;BME280;15675;52.870;-1.416;2023-03-25T07:28:40;99228.59;;;9.16;100.00
28448;BME280;15675;52.870;-1.416;2023-03-25T07:31:11;99234.44;;;9.30;100.00
28448;BME280;15675;52.870;-1.416;2023-03-25T07:33:36;99239.41;;;9.44;100.00
28448;BME280;15675;52.870;-1.416;2023-03-25T07:36:04;99223.47;;;9.13;100.00
28448;BME280;15675;52.870;-1.416;2023-03-25T07:38:29;99219.16;;;9.12;100.00
28448;BME280;15675;52.870;-1.416;2023-03-25T07:40:55;99245.47;;;9.43;100.00
28448;BME280;15675;52.870;-1.416;2023-03-25T07:43:20;99256.94;;;9.27;100.00
28448;BME280;15675;52.870;-1.416;2023-03-25T07:45:46;99238.69;;;9.35;100.00
28448;BME280;15675;52.870;-1.416;2023-03-25T07:48:11;99253.25;;;9.42;100.00
28448;BME280;15675;52.870;-1.416;2023-03-25T07:50:43;99251.81;;;9.24;100.00
28448;BME280;15675;52.870;-1.416;2023-03-25T07:53:10;99294.78;;;9.36;100.00
28448;BME280;15675;52.870;-1.416;2023-03-25T07:55:36;99287.38;;;9.11;100.00
28448;BME280;15675;52.870;-1.416;2023-03-25T07:58:01;99297.50;;;9.25;100.00
28448;BME280;15675;52.870;-1.416;2023-03-25T08:00:28;99309.84;;;9.07;100.00
28448;BME280;15675;52.870;-1.416;2023-03-25T08:02:54;99301.19;;;9.10;100.00
28448;BME280;15675;52.870;-1.416;2023-03-25T08:05:20;99315.72;;;9.19;100.00
28448;BME280;15675;52.870;-1.416;2023-03-25T08:07:47;99327.81;;;9.18;100.00
28448;BME280;15675;52.870;-1.416;2023-03-25T08:10:12;99326.16;;;9.14;100.00
28448;BME280;15675;52.870;-1.416;2023-03-25T08:12:44;99350.16;;;9.27;100.00
28448;BME280;15675;52.870;-1.416;2023-03-25T08:15:10;99353.50;;;9.35;100.00
28448;BME280;15675;52.870;-1.416;2023-03-25T08:17:37;99367.38;;;9.29;100.00
28448;BME280;15675;52.870;-1.416;2023-03-25T08:20:05;99367.41;;;9.28;100.00
28448;BME280;15675;52.870;-1.416;2023-03-25T08:22:32;99372.41;;;9.40;100.00
28448;BME280;15675;52.870;-1.416;2023-03-25T08:24:58;99372.41;;;9.42;100.00
28448;BME280;15675;52.870;-1.416;2023-03-25T08:27:23;99395.91;;;9.25;100.00
28448;BME280;15675;52.870;-1.416;2023-03-25T08:29:50;99396.56;;;9.44;100.00
28448;BME280;15675;52.870;-1.416;2023-03-25T08:32:20;99410.00;;;9.02;100.00
28448;BME280;15675;52.870;-1.416;2023-03-25T08:34:46;99407.97;;;9.27;100.00
28448;BME280;15675;52.870;-1.416;2023-03-25T08:37:11;99421.78;;;9.29;100.00
28448;BME280;15675;52.870;-1.416;2023-03-25T08:39:38;99439.72;;;9.42;100.00
28448;BME280;15675;52.870;-1.416;2023-03-25T08:42:07;99427.00;;;9.26;100.00
28448;BME280;15675;52.870;-1.416;2023-03-25T08:44:33;99428.19;;;9.67;100.00
28448;BME280;15675;52.870;-1.416;2023-03-25T08:46:59;99434.09;;;9.79;100.00
28448;BME280;15675;52.870;-1.416;2023-03-25T08:49:25;99433.22;;;9.80;100.00
28448;BME280;15675;52.870;-1.416;2023-03-25T08:51:51;99436.41;;;9.99;100.00
28448;BME280;15675;52.870;-1.416;2023-03-25T08:54:17;99434.03;;;9.85;100.00
28448;BME280;15675;52.870;-1.416;2023-03-25T08:56:42;99453.28;;;9.65;100.00
28448;BME280;15675;52.870;-1.416;2023-03-25T08:59:08;99462.56;;;9.83;100.00
28448;BME280;15675;52.870;-1.416;2023-03-25T09:01:33;99465.75;;;10.02;100.00
28448;BME280;15675;52.870;-1.416;2023-03-25T09:03:59;99466.50;;;9.42;100.00
28448;BME280;15675;52.870;-1.416;2023-03-25T09:06:24;99474.97;;;9.57;100.00
28448;BME280;15675;52.870;-1.416;2023-03-25T09:08:50;99482.03;;;9.42;100.00
28448;BME280;15675;52.870;-1.416;2023-03-25T09:11:16;99488.84;;;9.51;100.00
28448;BME280;15675;52.870;-1.416;2023-03-25T09:13:42;99485.56;;;9.37;100.00
28448;BME280;15675;52.870;-1.416;2023-03-25T09:16:08;99485.69;;;9.24;100.00
28448;BME280;15675;52.870;-1.416;2023-03-25T09:18:34;99505.47;;;9.30;100.00
28448;BME280;15675;52.870;-1.416;2023-03-25T09:21:02;99514.34;;;9.06;100.00
28448;BME280;15675;52.870;-1.416;2023-03-25T09:23:27;99516.84;;;9.15;100.00
28448;BME280;15675;52.870;-1.416;2023-03-25T09:25:53;99507.09;;;9.39;100.00
28448;BME280;15675;52.870;-1.416;2023-03-25T09:28:19;99528.03;;;9.17;100.00
28448;BME280;15675;52.870;-1.416;2023-03-25T09:30:45;99512.38;;;9.32;100.00
28448;BME280;15675;52.870;-1.416;2023-03-25T09:33:10;99507.34;;;9.95;100.00
28448;BME280;15675;52.870;-1.416;2023-03-25T09:35:39;99529.31;;;9.61;100.00
28448;BME280;15675;52.870;-1.416;2023-03-25T09:38:04;99539.25;;;9.18;100.00
28448;BME280;15675;52.870;-1.416;2023-03-25T09:40:30;99497.41;;;9.58;100.00
28448;BME280;15675;52.870;-1.416;2023-03-25T09:45:50;99525.69;;;9.78;100.00
28448;BME280;15675;52.870;-1.416;2023-03-25T09:50:51;99529.09;;;9.81;100.00
28448;BME280;15675;52.870;-1.416;2023-03-25T09:53:40;99538.88;;;9.55;100.00
28448;BME280;15675;52.870;-1.416;2023-03-25T09:56:24;99555.31;;;9.54;100.00
28448;BME280;15675;52.870;-1.416;2023-03-25T09:59:20;99549.72;;;9.91;100.00
28448;BME280;15675;52.870;-1.416;2023-03-25T10:04:44;99559.38;;;9.78;100.00
28448;BME280;15675;52.870;-1.416;2023-03-25T10:18:18;99583.66;;;10.42;100.00
28448;BME280;15675;52.870;-1.416;2023-03-25T10:20:51;99582.19;;;10.19;100.00
28448;BME280;15675;52.870;-1.416;2023-03-25T10:23:42;99574.84;;;10.54;100.00
28448;BME280;15675;52.870;-1.416;2023-03-25T10:26:26;99610.09;;;10.00;100.00
28448;BME280;15675;52.870;-1.416;2023-03-25T10:29:04;99608.28;;;10.06;100.00
28448;BME280;15675;52.870;-1.416;2023-03-25T10:31:34;99611.03;;;9.95;100.00
28448;BME280;15675;52.870;-1.416;2023-03-25T10:34:12;99619.88;;;10.50;100.00
28448;BME280;15675;52.870;-1.416;2023-03-25T10:36:44;99611.38;;;10.39;100.00
28448;BME280;15675;52.870;-1.416;2023-03-25T10:39:17;99622.63;;;10.39;100.00
28448;BME280;15675;52.870;-1.416;2023-03-25T10:41:46;99621.44;;;10.63;100.00
28448;BME280;15675;52.870;-1.416;2023-03-25T10:44:12;99646.81;;;10.40;100.00
28448;BME280;15675;52.870;-1.416;2023-03-25T10:49:14;99673.94;;;9.11;100.00
28448;BME280;15675;52.870;-1.416;2023-03-25T10:51:42;99667.97;;;8.98;100.00
28448;BME280;15675;52.870;-1.416;2023-03-25T10:54:11;99661.66;;;9.38;100.00
28448;BME280;15675;52.870;-1.416;2023-03-25T10:56:44;99635.00;;;10.14;100.00
28448;BME280;15675;52.870;-1.416;2023-03-25T11:01:50;99655.91;;;9.98;100.00
28448;BME280;15675;52.870;-1.416;2023-03-25T11:04:19;99663.63;;;10.01;100.00
28448;BME280;15675;52.870;-1.416;2023-03-25T11:06:51;99656.59;;;10.14;100.00
28448;BME280;15675;52.870;-1.416;2023-03-25T11:09:25;99656.97;;;10.58;100.00
28448;BME280;15675;52.870;-1.416;2023-03-25T11:11:54;99660.50;;;11.15;100.00
28448;BME280;15675;52.870;-1.416;2023-03-25T11:14:24;99664.97;;;11.58;100.00
28448;BME280;15675;52.870;-1.416;2023-03-25T11:16:54;99647.69;;;11.02;100.00
28448;BME280;15675;52.870;-1.416;2023-03-25T11:19:30;99655.44;;;11.04;100.00
28448;BME280;15675;52.870;-1.416;2023-03-25T11:22:17;99656.91;;;11.22;100.00
28448;BME280;15675;52.870;-1.416;2023-03-25T11:24:46;99662.03;;;11.27;100.00
28448;BME280;15675;52.870;-1.416;2023-03-25T11:27:17;99662.94;;;11.24;100.00
28448;BME280;15675;52.870;-1.416;2023-03-25T11:29:50;99672.53;;;11.20;100.00
28448;BME280;15675;52.870;-1.416;2023-03-25T11:32:31;99668.91;;;11.31;100.00
28448;BME280;15675;52.870;-1.416;2023-03-25T11:35:00;99683.41;;;11.43;100.00
28448;BME280;15675;52.870;-1.416;2023-03-25T11:37:28;99689.41;;;11.48;99.48
28448;BME280;15675;52.870;-1.416;2023-03-25T11:39:55;99679.91;;;11.45;99.06
28448;BME280;15675;52.870;-1.416;2023-03-25T11:42:39;99701.16;;;11.16;97.93
28448;BME280;15675;52.870;-1.416;2023-03-25T11:45:18;99705.69;;;11.01;98.42
28448;BME280;15675;52.870;-1.416;2023-03-25T11:47:44;99688.72;;;11.36;97.35
28448;BME280;15675;52.870;-1.416;2023-03-25T11:50:23;99680.69;;;11.52;93.41
28448;BME280;15675;52.870;-1.416;2023-03-25T11:52:55;99695.09;;;11.70;91.27
28448;BME280;15675;52.870;-1.416;2023-03-25T11:55:29;99688.47;;;11.53;87.96
28448;BME280;15675;52.870;-1.416;2023-03-25T11:57:57;99712.72;;;11.52;85.01
28448;BME280;15675;52.870;-1.416;2023-03-25T12:03:02;99729.44;;;11.37;85.45
28448;BME280;15675;52.870;-1.416;2023-03-25T12:05:28;99721.28;;;11.00;91.51
28448;BME280;15675;52.870;-1.416;2023-03-25T12:08:10;99747.06;;;10.45;100.00
28448;BME280;15675;52.870;-1.416;2023-03-25T12:23:55;99737.47;;;11.20;100.00
28448;BME280;15675;52.870;-1.416;2023-03-25T12:58:27;99738.31;;;12.29;98.61
28448;BME280;15675;52.870;-1.416;2023-03-25T13:01:27;99762.41;;;11.87;100.00
28448;BME280;15675;52.870;-1.416;2023-03-25T13:06:59;99783.06;;;10.76;100.00
28448;BME280;15675;52.870;-1.416;2023-03-25T13:09:34;99798.06;;;10.48;100.00
28448;BME280;15675;52.870;-1.416;2023-03-25T13:12:08;99847.59;;;10.17;100.00
28448;BME280;15675;52.870;-1.416;2023-03-25T13:14:40;99805.31;;;10.12;100.00
28448;BME280;15675;52.870;-1.416;2023-03-25T13:17:19;99803.44;;;10.26;100.00
28448;BME280;15675;52.870;-1.416;2023-03-25T13:19:46;99814.97;;;9.91;100.00
28448;BME280;15675;52.870;-1.416;2023-03-25T13:22:18;99823.44;;;10.10;100.00
28448;BME280;15675;52.870;-1.416;2023-03-25T13:24:54;99805.47;;;9.93;100.00
28448;BME280;15675;52.870;-1.416;2023-03-25T13:27:21;99824.47;;;9.94;100.00
28448;BME280;15675;52.870;-1.416;2023-03-25T13:29:51;99828.53;;;10.23;100.00
28448;BME280;15675;52.870;-1.416;2023-03-25T13:35:01;99830.75;;;10.67;100.00
28448;BME280;15675;52.870;-1.416;2023-03-25T13:37:34;99834.16;;;10.69;100.00
28448;BME280;15675;52.870;-1.416;2023-03-25T13:42:54;99831.28;;;10.94;100.00
28448;BME280;15675;52.870;-1.416;2023-03-25T13:45:23;99826.78;;;11.10;100.00
28448;BME280;15675;52.870;-1.416;2023-03-25T13:47:54;99824.50;;;11.49;100.00
28448;BME280;15675;52.870;-1.416;2023-03-25T13:50:29;99832.56;;;11.91;100.00
28448;BME280;15675;52.870;-1.416;2023-03-25T13:53:00;99829.75;;;11.46;100.00
28448;BME280;15675;52.870;-1.416;2023-03-25T13:55:34;99836.28;;;11.73;100.00
28448;BME280;15675;52.870;-1.416;2023-03-25T14:03:52;99832.66;;;11.25;100.00
28448;BME280;15675;52.870;-1.416;2023-03-25T14:09:52;99830.19;;;11.12;100.00
28448;BME280;15675;52.870;-1.416;2023-03-25T14:12:29;99836.06;;;11.28;100.00
28448;BME280;15675;52.870;-1.416;2023-03-25T14:15:22;99858.03;;;11.02;100.00
28448;BME280;15675;52.870;-1.416;2023-03-25T14:17:49;99832.09;;;10.12;100.00
28448;BME280;15675;52.870;-1.416;2023-03-25T14:20:21;99880.34;;;10.35;100.00
28448;BME280;15675;52.870;-1.416;2023-03-25T14:22:54;99862.97;;;10.45;100.00
28448;BME280;15675;52.870;-1.416;2023-03-25T14:25:28;99872.56;;;10.30;100.00
28448;BME280;15675;52.870;-1.416;2023-03-25T14:27:56;99867.06;;;10.66;100.00
28448;BME280;15675;52.870;-1.416;2023-03-25T14:30:26;99864.47;;;10.66;100.00
28448;BME280;15675;52.870;-1.416;2023-03-25T14:32:56;99870.19;;;10.99;100.00
28448;BME280;15675;52.870;-1.416;2023-03-25T14:48:35;99882.00;;;10.44;100.00
28448;BME280;15675;52.870;-1.416;2023-03-25T14:51:13;99870.03;;;10.23;100.00
28448;BME280;15675;52.870;-1.416;2023-03-25T14:53:41;99860.69;;;10.01;100.00
28448;BME280;15675;52.870;-1.416;2023-03-25T14:56:16;99865.69;;;10.25;100.00
28448;BME280;15675;52.870;-1.416;2023-03-25T14:58:43;99871.56;;;10.48;100.00
28448;BME280;15675;52.870;-1.416;2023-03-25T15:01:13;99874.09;;;10.56;100.00
28448;BME280;15675;52.870;-1.416;2023-03-25T15:03:42;99883.22;;;10.93;100.00
28448;BME280;15675;52.870;-1.416;2023-03-25T15:06:15;99880.53;;;11.02;100.00
28448;BME280;15675;52.870;-1.416;2023-03-25T15:08:49;99889.03;;;11.16;100.00
28448;BME280;15675;52.870;-1.416;2023-03-25T15:11:24;99895.19;;;11.09;100.00
28448;BME280;15675;52.870;-1.416;2023-03-25T15:13:55;99895.22;;;11.06;100.00
28448;BME280;15675;52.870;-1.416;2023-03-25T15:16:32;99899.22;;;11.33;100.00
28448;BME280;15675;52.870;-1.416;2023-03-25T15:19:03;99901.63;;;11.49;100.00
28448;BME280;15675;52.870;-1.416;2023-03-25T15:22:34;99891.13;;;11.55;100.00
28448;BME280;15675;52.870;-1.416;2023-03-25T15:24:43;99897.22;;;11.54;100.00
28448;BME280;15675;52.870;-1.416;2023-03-25T15:29:50;99889.09;;;11.77;100.00
28448;BME280;15675;52.870;-1.416;2023-03-25T15:38:26;99881.38;;;11.71;100.00